createdAt,value
2018-02-17T00:02:54.490Z,4.30
2018-02-17T00:07:57.306Z,3.70
2018-02-17T00:12:59.916Z,4.03
2018-02-17T00:18:02.591Z,3.03
2018-02-17T00:23:05.205Z,2.83
2018-02-17T00:28:07.795Z,2.53
2018-02-17T00:33:10.531Z,3.37
2018-02-17T00:38:13.038Z,2.87
2018-02-17T00:43:15.635Z,4.27
2018-02-17T00:48:18.424Z,3.20
2018-02-17T00:53:20.980Z,2.93
2018-02-17T00:58:24.456Z,3.07
2018-02-17T01:03:27.081Z,3.60
2018-02-17T01:08:30.347Z,3.20
2018-02-17T01:13:32.870Z,2.90
2018-02-17T01:18:35.390Z,2.70
2018-02-17T01:23:37.921Z,2.50
2018-02-17T01:28:40.440Z,2.60
2018-02-17T01:33:42.975Z,2.37
2018-02-17T01:38:46.256Z,3.37
2018-02-17T01:43:49.018Z,2.70
2018-02-17T01:48:51.804Z,2.77
2018-02-17T01:53:54.376Z,2.67
2018-02-17T01:58:57.702Z,2.70
2018-02-17T02:04:00.255Z,2.60
2018-02-17T02:09:03.181Z,3.17
2018-02-17T02:14:06.686Z,4.17
2018-02-17T02:19:09.255Z,2.57
2018-02-17T02:24:11.882Z,1.90
2018-02-17T02:29:14.464Z,2.70
2018-02-17T02:34:17.684Z,2.27
2018-02-17T02:39:20.237Z,3.07
2018-02-17T02:44:22.799Z,1.90
2018-02-17T02:49:26.122Z,2.47
2018-02-17T02:54:28.702Z,2.40
2018-02-17T02:59:31.991Z,1.60
2018-02-17T03:04:34.793Z,2.00
2018-02-17T03:09:37.348Z,2.30
2018-02-17T03:14:40.121Z,1.67
2018-02-17T03:19:43.439Z,2.03
2018-02-17T03:24:45.978Z,1.77
2018-02-17T03:29:48.571Z,2.07
2018-02-17T03:34:51.400Z,1.80
2018-02-17T03:39:53.974Z,1.73
2018-02-17T03:44:56.808Z,2.10
2018-02-17T03:50:00.138Z,1.70
2018-02-17T03:55:02.675Z,1.77
2018-02-17T04:00:05.885Z,2.07
2018-02-17T04:05:08.823Z,1.60
2018-02-17T04:10:11.344Z,2.13
2018-02-17T04:15:13.852Z,1.20
2018-02-17T04:20:16.364Z,1.57
2018-02-17T04:25:18.919Z,1.37
2018-02-17T04:30:21.428Z,1.67
2018-02-17T04:35:23.926Z,2.57
2018-02-17T04:40:32.993Z,1.63
2018-02-17T04:45:41.177Z,1.40
2018-02-17T04:50:45.479Z,1.40
2018-02-17T04:56:03.678Z,1.50
2018-02-17T05:01:08.742Z,1.33
2018-02-17T05:06:26.190Z,1.30
2018-02-17T05:11:29.620Z,1.30
2018-02-17T05:16:32.160Z,1.50
2018-02-17T05:21:51.422Z,1.40
2018-02-17T05:27:09.775Z,1.70
2018-02-17T05:32:13.060Z,1.67
2018-02-17T05:37:15.592Z,1.33
2018-02-17T05:42:24.558Z,1.40
2018-02-17T05:47:43.880Z,1.20
2018-02-17T05:52:46.389Z,1.60
2018-02-17T05:57:49.200Z,1.20
2018-02-17T06:02:51.724Z,1.33
2018-02-17T06:07:54.286Z,1.30
2018-02-17T06:12:57.628Z,1.30
2018-02-17T06:18:00.191Z,1.33
2018-02-17T06:23:02.785Z,1.40
2018-02-17T06:28:05.331Z,1.97
2018-02-17T06:33:07.870Z,1.47
2018-02-17T06:38:10.356Z,1.00
2018-02-17T06:43:12.958Z,1.20
2018-02-17T06:48:15.651Z,1.23
2018-02-17T06:53:18.373Z,1.00
2018-02-17T06:58:20.938Z,1.10
2018-02-17T07:03:24.661Z,1.03
2018-02-17T07:08:27.407Z,1.20
2018-02-17T07:13:30.628Z,1.00
2018-02-17T07:18:33.386Z,0.90
2018-02-17T07:23:35.956Z,0.90
2018-02-17T07:28:38.472Z,0.80
2018-02-17T07:33:40.997Z,1.00
2018-02-17T07:38:43.787Z,0.93
2018-02-17T07:43:46.289Z,0.80
2018-02-17T07:48:48.856Z,0.90
2018-02-17T07:53:52.120Z,1.30
2018-02-17T07:58:54.628Z,0.80
2018-02-17T08:03:57.191Z,0.70
2018-02-17T08:08:59.715Z,0.83
2018-02-17T08:14:02.429Z,0.90
2018-02-17T08:19:04.970Z,0.80
2018-02-17T08:24:07.551Z,0.60
2018-02-17T08:29:10.965Z,0.80
2018-02-17T08:34:13.510Z,0.83
2018-02-17T08:39:16.095Z,0.93
2018-02-17T08:44:18.640Z,1.00
2018-02-17T08:49:21.445Z,0.90
2018-02-17T08:54:25.306Z,0.90
2018-02-17T08:59:28.311Z,0.87
2018-02-17T09:04:31.082Z,0.90
2018-02-17T09:09:34.444Z,0.70
2018-02-17T09:14:37.002Z,0.90
2018-02-17T09:19:39.571Z,1.30
2018-02-17T09:24:42.894Z,0.80
2018-02-17T09:29:46.914Z,1.10
2018-02-17T09:34:49.420Z,1.03
2018-02-17T09:39:52.097Z,2.07
2018-02-17T09:44:54.760Z,1.40
2018-02-17T09:49:58.213Z,1.97
2018-02-17T09:55:01.612Z,2.47
2018-02-17T10:00:05.254Z,2.43
2018-02-17T10:05:07.824Z,2.00
2018-02-17T10:10:10.554Z,2.93
2018-02-17T10:15:14.139Z,3.87
2018-02-17T10:20:16.744Z,3.40
2018-02-17T10:25:19.772Z,3.70
2018-02-17T10:30:23.576Z,5.07
2018-02-17T10:35:26.472Z,3.63
2018-02-17T10:40:29.205Z,3.33
2018-02-17T10:45:31.750Z,2.90
2018-02-17T10:50:34.970Z,3.47
2018-02-17T10:55:37.750Z,3.70
2018-02-17T11:00:40.674Z,3.63
2018-02-17T11:05:43.220Z,3.70
2018-02-17T11:10:46.346Z,4.37
2018-02-17T11:15:49.138Z,3.50
2018-02-17T11:20:52.095Z,3.60
2018-02-17T11:25:55.509Z,3.47
2018-02-17T11:30:58.886Z,2.93
2018-02-17T11:36:01.590Z,3.50
2018-02-17T11:41:04.147Z,3.17
2018-02-17T11:46:07.185Z,3.00
2018-02-17T11:51:09.812Z,3.50
2018-02-17T11:56:13.462Z,3.13
2018-02-17T12:01:16.437Z,3.10
2018-02-17T12:06:20.572Z,2.90
2018-02-17T12:11:23.921Z,6.17
2018-02-17T12:16:26.804Z,9.50
2018-02-17T12:21:30.000Z,9.37
2018-02-17T12:26:33.739Z,9.30
2018-02-17T12:31:36.552Z,9.00
2018-02-17T12:36:39.090Z,9.47
2018-02-17T12:41:41.893Z,9.50
2018-02-17T12:46:44.726Z,9.00
2018-02-17T12:51:47.941Z,7.23
2018-02-17T12:56:50.614Z,5.80
2018-02-17T13:01:53.311Z,5.60
2018-02-17T13:06:56.627Z,4.63
2018-02-17T13:11:59.489Z,4.62
2018-02-17T13:17:02.340Z,5.00
2018-02-17T13:22:05.697Z,3.93
2018-02-17T13:27:09.169Z,3.70
2018-02-17T13:32:12.079Z,4.43
2018-02-17T13:37:15.343Z,4.20
2018-02-17T13:42:18.185Z,3.57
2018-02-17T13:47:20.880Z,3.83
2018-02-17T13:52:23.688Z,4.20
2018-02-17T13:57:26.322Z,3.03
2018-02-17T14:02:30.475Z,2.90
2018-02-17T14:07:33.469Z,3.73
2018-02-17T14:12:36.031Z,3.33
2018-02-17T14:17:39.122Z,4.20
2018-02-17T14:22:41.882Z,2.87
2018-02-17T14:27:45.302Z,2.40
2018-02-17T14:32:47.970Z,2.67
2018-02-17T14:37:50.543Z,2.93
2018-02-17T14:42:54.196Z,2.63
2018-02-17T14:47:56.964Z,2.47
2018-02-17T14:53:00.377Z,2.57
2018-02-17T14:58:03.138Z,2.30
2018-02-17T15:03:06.074Z,2.60
2018-02-17T15:08:09.773Z,3.40
2018-02-17T15:13:12.889Z,2.60
2018-02-17T15:18:15.788Z,2.40
2018-02-17T15:23:18.844Z,2.43
2018-02-17T15:28:21.407Z,2.27
2018-02-17T15:33:24.320Z,2.30
2018-02-17T15:38:27.011Z,2.57
2018-02-17T15:43:30.557Z,3.03
2018-02-17T15:48:33.498Z,2.30
2018-02-17T15:53:36.812Z,2.30
2018-02-17T15:58:39.383Z,2.57
2018-02-17T16:03:41.953Z,2.50
2018-02-17T16:08:44.513Z,2.20
2018-02-17T16:13:47.140Z,2.37
2018-02-17T16:18:49.679Z,1.97
2018-02-17T16:23:52.980Z,2.57
2018-02-17T16:28:57.134Z,2.40
2018-02-17T16:33:59.627Z,2.00
2018-02-17T16:39:02.163Z,2.17
2018-02-17T16:44:04.716Z,3.00
2018-02-17T16:49:07.240Z,3.00
2018-02-17T16:54:09.931Z,2.83
2018-02-17T16:59:12.772Z,2.87
2018-02-17T17:04:16.114Z,3.23
2018-02-17T17:09:18.641Z,3.07
2018-02-17T17:14:21.205Z,3.53
2018-02-17T17:19:23.771Z,2.87
2018-02-17T17:24:26.686Z,3.23
2018-02-17T17:29:29.362Z,2.80
2018-02-17T17:34:32.701Z,3.03
2018-02-17T17:39:36.290Z,2.90
2018-02-17T17:44:39.121Z,3.17
2018-02-17T17:49:41.750Z,3.33
2018-02-17T17:54:44.796Z,2.77
2018-02-17T17:59:48.127Z,3.00
2018-02-17T18:04:52.115Z,2.53
2018-02-17T18:09:54.643Z,2.90
2018-02-17T18:14:57.174Z,3.43
2018-02-17T18:20:00.634Z,2.90
2018-02-17T18:25:04.394Z,2.47
2018-02-17T18:30:07.091Z,2.80
2018-02-17T18:35:09.700Z,2.37
2018-02-17T18:40:13.023Z,2.40
2018-02-17T18:45:16.538Z,2.30
2018-02-17T18:50:19.121Z,2.70
2018-02-17T18:55:22.534Z,2.63
2018-02-17T19:00:25.120Z,2.53
2018-02-17T19:05:27.825Z,2.27
2018-02-17T19:10:30.651Z,2.57
2018-02-17T19:15:34.254Z,2.47
2018-02-17T19:20:36.956Z,2.30
2018-02-17T19:25:41.433Z,3.63
2018-02-17T19:30:44.029Z,3.37
2018-02-17T19:35:46.552Z,3.97
2018-02-17T19:40:49.331Z,3.20
2018-02-17T19:45:51.981Z,3.60
2018-02-17T19:50:54.804Z,3.73
2018-02-17T19:55:57.742Z,3.37
2018-02-17T20:01:01.191Z,3.30
2018-02-17T20:06:03.786Z,2.93
2018-02-17T20:11:07.182Z,2.93
2018-02-17T20:16:10.079Z,2.37
2018-02-17T20:21:14.235Z,2.60
2018-02-17T20:26:19.335Z,2.80
2018-02-17T20:31:22.350Z,2.70
2018-02-17T20:36:26.442Z,3.40
2018-02-17T20:41:29.532Z,3.00
2018-02-17T20:46:32.456Z,3.17
2018-02-17T20:51:35.071Z,2.80
2018-02-17T20:56:38.185Z,3.07
2018-02-17T21:01:40.761Z,3.00
2018-02-17T21:06:43.669Z,4.20
2018-02-17T21:11:47.374Z,3.13
2018-02-17T21:16:50.365Z,3.30
2018-02-17T21:21:53.256Z,4.03
2018-02-17T21:26:56.766Z,3.97
2018-02-17T21:32:00.631Z,3.93
2018-02-17T21:37:03.800Z,4.33
2018-02-17T21:42:07.180Z,3.90
2018-02-17T21:47:09.929Z,3.90
2018-02-17T21:52:12.537Z,4.80
2018-02-17T21:57:15.066Z,4.53
2018-02-17T22:02:17.583Z,4.20
2018-02-17T22:07:20.929Z,3.97
2018-02-17T22:12:23.461Z,3.83
2018-02-17T22:17:25.992Z,3.87
2018-02-17T22:22:28.574Z,3.80
2018-02-17T22:27:31.166Z,4.17
2018-02-17T22:32:34.594Z,4.67
2018-02-17T22:37:38.023Z,4.13
2018-02-17T22:42:41.218Z,4.20
2018-02-17T22:47:43.790Z,4.57
2018-02-17T22:52:46.921Z,4.43
2018-02-17T22:57:49.825Z,4.60
2018-02-17T23:02:53.144Z,4.03
2018-02-17T23:07:56.795Z,4.13
2018-02-17T23:12:59.362Z,4.70
2018-02-17T23:18:02.995Z,4.50
2018-02-17T23:23:06.602Z,4.83
2018-02-17T23:28:09.990Z,4.93
2018-02-17T23:33:12.739Z,5.27
2018-02-17T23:38:15.332Z,8.00
2018-02-17T23:43:17.898Z,6.63
2018-02-17T23:48:20.464Z,5.17
2018-02-17T23:53:23.028Z,4.43
2018-02-17T23:58:25.588Z,4.37
